sensor_id;sensor_type;location;lat;lon;timestamp;pressure;altitude;pressure_sealevel;temperature;humidity
51439;BME280;38816;51.142;-0.974;2023-04-29T00:01:03;100286.25;;;10.06;100.00
51439;BME280;38816;51.142;-0.974;2023-04-29T00:03:29;100287.06;;;10.04;100.00
51439;BME280;38816;51.142;-0.974;2023-04-29T00:05:57;100287.00;;;10.01;100.00
51439;BME280;38816;51.142;-0.974;2023-04-29T00:08:23;100287.78;;;9.97;100.00
51439;BME280;38816;51.142;-0.974;2023-04-29T00:10:49;100294.56;;;9.95;100.00
51439;BME280;38816;51.142;-0.974;2023-04-29T00:13:14;100283.31;;;9.86;100.00
51439;BME280;38816;51.142;-0.974;2023-04-29T00:15:40;100276.31;;;9.81;100.00
51439;BME280;38816;51.142;-0.974;2023-04-29T00:18:06;100290.84;;;9.79;100.00
51439;BME280;38816;51.142;-0.974;2023-04-29T00:20:31;100282.19;;;9.74;100.00
51439;BME280;38816;51.142;-0.974;2023-04-29T00:22:57;100283.84;;;9.72;100.00
51439;BME280;38816;51.142;-0.974;2023-04-29T00:25:22;100285.44;;;9.65;100.00
51439;BME280;38816;51.142;-0.974;2023-04-29T00:27:48;100294.75;;;9.60;100.00
51439;BME280;38816;51.142;-0.974;2023-04-29T00:30:13;100294.56;;;9.51;100.00
51439;BME280;38816;51.142;-0.974;2023-04-29T00:32:39;100286.66;;;9.42;100.00
51439;BME280;38816;51.142;-0.974;2023-04-29T00:35:05;100290.88;;;9.39;100.00
51439;BME280;38816;51.142;-0.974;2023-04-29T00:37:31;100291.72;;;9.38;100.00
51439;BME280;38816;51.142;-0.974;2023-04-29T00:39:57;100289.97;;;9.37;100.00
51439;BME280;38816;51.142;-0.974;2023-04-29T00:42:22;100284.75;;;9.33;100.00
51439;BME280;38816;51.142;-0.974;2023-04-29T00:44:48;100275.84;;;9.17;100.00
51439;BME280;38816;51.142;-0.974;2023-04-29T00:47:13;100287.78;;;9.17;100.00
51439;BME280;38816;51.142;-0.974;2023-04-29T00:49:39;100303.22;;;9.18;100.00
51439;BME280;38816;51.142;-0.974;2023-04-29T00:52:04;100283.09;;;8.99;100.00
51439;BME280;38816;51.142;-0.974;2023-04-29T00:54:33;100291.63;;;8.98;100.00
51439;BME280;38816;51.142;-0.974;2023-04-29T00:57:00;100292.50;;;8.98;100.00
51439;BME280;38816;51.142;-0.974;2023-04-29T00:59:27;100300.22;;;9.00;100.00
51439;BME280;38816;51.142;-0.974;2023-04-29T01:01:58;100291.50;;;8.92;100.00
51439;BME280;38816;51.142;-0.974;2023-04-29T01:04:24;100281.16;;;8.88;100.00
51439;BME280;38816;51.142;-0.974;2023-04-29T01:12:20;100298.03;;;8.79;100.00
51439;BME280;38816;51.142;-0.974;2023-04-29T01:15:11;100299.66;;;8.75;100.00
51439;BME280;38816;51.142;-0.974;2023-04-29T01:17:43;100301.16;;;8.67;100.00
51439;BME280;38816;51.142;-0.974;2023-04-29T01:20:09;100294.22;;;8.63;100.00
51439;BME280;38816;51.142;-0.974;2023-04-29T01:22:35;100287.25;;;8.57;100.00
51439;BME280;38816;51.142;-0.974;2023-04-29T01:25:01;100291.41;;;8.54;100.00
51439;BME280;38816;51.142;-0.974;2023-04-29T01:27:38;100279.22;;;8.45;100.00
51439;BME280;38816;51.142;-0.974;2023-04-29T01:32:45;100297.13;;;8.44;100.00
51439;BME280;38816;51.142;-0.974;2023-04-29T01:38:35;100296.09;;;8.37;100.00
51439;BME280;38816;51.142;-0.974;2023-04-29T01:43:37;100297.53;;;8.27;100.00
51439;BME280;38816;51.142;-0.974;2023-04-29T01:46:05;100294.91;;;8.24;100.00
51439;BME280;38816;51.142;-0.974;2023-04-29T01:48:33;100294.72;;;8.18;100.00
51439;BME280;38816;51.142;-0.974;2023-04-29T01:50:58;100299.84;;;8.18;100.00
51439;BME280;38816;51.142;-0.974;2023-04-29T01:53:24;100308.34;;;8.17;100.00
51439;BME280;38816;51.142;-0.974;2023-04-29T01:55:49;100297.88;;;8.08;100.00
51439;BME280;38816;51.142;-0.974;2023-04-29T01:58:14;100311.56;;;8.10;100.00
51439;BME280;38816;51.142;-0.974;2023-04-29T02:00:40;100315.81;;;8.09;100.00
51439;BME280;38816;51.142;-0.974;2023-04-29T02:03:06;100311.50;;;8.07;100.00
51439;BME280;38816;51.142;-0.974;2023-04-29T02:05:32;100303.63;;;8.01;100.00
51439;BME280;38816;51.142;-0.974;2023-04-29T02:07:59;100315.63;;;8.02;100.00
51439;BME280;38816;51.142;-0.974;2023-04-29T02:10:25;100314.66;;;7.98;100.00
51439;BME280;38816;51.142;-0.974;2023-04-29T02:12:50;100314.59;;;7.97;100.00
51439;BME280;38816;51.142;-0.974;2023-04-29T02:15:15;100315.38;;;7.93;100.00
51439;BME280;38816;51.142;-0.974;2023-04-29T02:17:41;100298.81;;;7.81;100.00
51439;BME280;38816;51.142;-0.974;2023-04-29T02:20:07;100322.09;;;7.89;100.00
51439;BME280;38816;51.142;-0.974;2023-04-29T02:22:34;100320.25;;;7.85;100.00
51439;BME280;38816;51.142;-0.974;2023-04-29T02:24:59;100312.34;;;7.77;100.00
51439;BME280;38816;51.142;-0.974;2023-04-29T02:27:25;100319.19;;;7.78;100.00
51439;BME280;38816;51.142;-0.974;2023-04-29T02:29:50;100324.31;;;7.78;100.00
51439;BME280;38816;51.142;-0.974;2023-04-29T02:32:16;100329.38;;;7.75;100.00
51439;BME280;38816;51.142;-0.974;2023-04-29T02:34:44;100323.25;;;7.70;100.00
51439;BME280;38816;51.142;-0.974;2023-04-29T02:37:10;100311.81;;;7.59;100.00
51439;BME280;38816;51.142;-0.974;2023-04-29T02:39:35;100328.88;;;7.58;100.00
51439;BME280;38816;51.142;-0.974;2023-04-29T02:42:00;100322.63;;;7.49;100.00
51439;BME280;38816;51.142;-0.974;2023-04-29T02:44:27;100311.13;;;7.36;100.00
51439;BME280;38816;51.142;-0.974;2023-04-29T02:46:52;100310.25;;;7.34;100.00
51439;BME280;38816;51.142;-0.974;2023-04-29T02:49:18;100315.34;;;7.34;100.00
51439;BME280;38816;51.142;-0.974;2023-04-29T02:51:43;100318.91;;;7.39;100.00
51439;BME280;38816;51.142;-0.974;2023-04-29T02:54:08;100310.16;;;7.32;100.00
51439;BME280;38816;51.142;-0.974;2023-04-29T02:56:35;100311.91;;;7.33;100.00
51439;BME280;38816;51.142;-0.974;2023-04-29T02:59:01;100302.31;;;7.26;100.00
51439;BME280;38816;51.142;-0.974;2023-04-29T03:01:26;100309.00;;;7.21;100.00
51439;BME280;38816;51.142;-0.974;2023-04-29T03:03:51;100302.03;;;7.17;100.00
51439;BME280;38816;51.142;-0.974;2023-04-29T03:06:17;100303.59;;;7.12;100.00
51439;BME280;38816;51.142;-0.974;2023-04-29T03:08:43;100305.19;;;7.08;100.00
51439;BME280;38816;51.142;-0.974;2023-04-29T03:11:08;100312.88;;;7.10;100.00
51439;BME280;38816;51.142;-0.974;2023-04-29T03:13:33;100320.38;;;7.04;100.00
51439;BME280;38816;51.142;-0.974;2023-04-29T03:15:59;100315.03;;;6.98;100.00
51439;BME280;38816;51.142;-0.974;2023-04-29T03:18:25;100311.44;;;6.91;100.00
51439;BME280;38816;51.142;-0.974;2023-04-29T03:20:50;100312.88;;;6.83;100.00
51439;BME280;38816;51.142;-0.974;2023-04-29T03:23:16;100305.13;;;6.80;100.00
51439;BME280;38816;51.142;-0.974;2023-04-29T03:25:41;100322.34;;;6.85;100.00
51439;BME280;38816;51.142;-0.974;2023-04-29T03:28:06;100308.44;;;6.77;100.00
51439;BME280;38816;51.142;-0.974;2023-04-29T03:30:32;100321.38;;;6.82;100.00
51439;BME280;38816;51.142;-0.974;2023-04-29T03:32:57;100321.31;;;6.80;100.00
51439;BME280;38816;51.142;-0.974;2023-04-29T03:35:22;100317.72;;;6.75;100.00
51439;BME280;38816;51.142;-0.974;2023-04-29T03:37:48;100326.88;;;6.69;100.00
51439;BME280;38816;51.142;-0.974;2023-04-29T03:40:13;100334.56;;;6.69;100.00
51439;BME280;38816;51.142;-0.974;2023-04-29T03:42:38;100338.63;;;6.64;100.00
51439;BME280;38816;51.142;-0.974;2023-04-29T03:45:04;100335.72;;;6.53;100.00
51439;BME280;38816;51.142;-0.974;2023-04-29T03:47:30;100337.34;;;6.51;100.00
51439;BME280;38816;51.142;-0.974;2023-04-29T03:49:56;100335.50;;;6.47;100.00
51439;BME280;38816;51.142;-0.974;2023-04-29T03:52:21;100350.06;;;6.49;100.00
51439;BME280;38816;51.142;-0.974;2023-04-29T03:54:46;100340.56;;;6.45;100.00
51439;BME280;38816;51.142;-0.974;2023-04-29T03:57:12;100344.00;;;6.46;100.00
51439;BME280;38816;51.142;-0.974;2023-04-29T03:59:37;100348.06;;;6.41;100.00
51439;BME280;38816;51.142;-0.974;2023-04-29T04:02:06;100350.50;;;6.38;100.00
51439;BME280;38816;51.142;-0.974;2023-04-29T04:04:31;100346.94;;;6.32;100.00
51439;BME280;38816;51.142;-0.974;2023-04-29T04:06:57;100353.72;;;6.32;100.00
51439;BME280;38816;51.142;-0.974;2023-04-29T04:09:22;100344.88;;;6.22;100.00
51439;BME280;38816;51.142;-0.974;2023-04-29T04:11:47;100353.47;;;6.26;100.00
51439;BME280;38816;51.142;-0.974;2023-04-29T04:14:13;100345.56;;;6.18;100.00
51439;BME280;38816;51.142;-0.974;2023-04-29T04:16:38;100355.09;;;6.22;100.00
51439;BME280;38816;51.142;-0.974;2023-04-29T04:19:03;100342.78;;;6.12;100.00
51439;BME280;38816;51.142;-0.974;2023-04-29T04:21:29;100362.59;;;6.18;100.00
51439;BME280;38816;51.142;-0.974;2023-04-29T04:23:55;100357.16;;;6.08;100.00
51439;BME280;38816;51.142;-0.974;2023-04-29T04:26:21;100367.34;;;6.08;100.00
51439;BME280;38816;51.142;-0.974;2023-04-29T04:28:47;100378.44;;;6.09;100.00
51439;BME280;38816;51.142;-0.974;2023-04-29T04:31:12;100373.31;;;6.09;100.00
51439;BME280;38816;51.142;-0.974;2023-04-29T04:33:39;100373.16;;;6.04;100.00
51439;BME280;38816;51.142;-0.974;2023-04-29T04:36:05;100373.06;;;6.03;100.00
51439;BME280;38816;51.142;-0.974;2023-04-29T04:38:31;100377.41;;;6.04;100.00
51439;BME280;38816;51.142;-0.974;2023-04-29T04:40:57;100392.72;;;6.04;100.00
51439;BME280;38816;51.142;-0.974;2023-04-29T04:43:22;100391.59;;;5.97;100.00
51439;BME280;38816;51.142;-0.974;2023-04-29T04:45:48;100398.25;;;5.94;100.00
51439;BME280;38816;51.142;-0.974;2023-04-29T04:48:13;100399.06;;;5.93;100.00
51439;BME280;38816;51.142;-0.974;2023-04-29T04:50:39;100397.13;;;5.87;100.00
51439;BME280;38816;51.142;-0.974;2023-04-29T04:53:04;100407.59;;;5.93;100.00
51439;BME280;38816;51.142;-0.974;2023-04-29T04:55:30;100418.66;;;5.94;100.00
51439;BME280;38816;51.142;-0.974;2023-04-29T04:57:57;100413.31;;;5.88;100.00
51439;BME280;38816;51.142;-0.974;2023-04-29T05:00:23;100418.41;;;5.88;100.00
51439;BME280;38816;51.142;-0.974;2023-04-29T05:02:48;100433.13;;;5.93;100.00
51439;BME280;38816;51.142;-0.974;2023-04-29T05:05:13;100437.09;;;5.87;100.00
51439;BME280;38816;51.142;-0.974;2023-04-29T05:07:39;100426.88;;;5.87;100.00
51439;BME280;38816;51.142;-0.974;2023-04-29T05:10:05;100432.09;;;5.90;100.00
51439;BME280;38816;51.142;-0.974;2023-04-29T05:12:30;100449.16;;;5.91;100.00
51439;BME280;38816;51.142;-0.974;2023-04-29T05:14:56;100451.72;;;5.91;100.00
51439;BME280;38816;51.142;-0.974;2023-04-29T05:17:22;100455.34;;;5.96;100.00
51439;BME280;38816;51.142;-0.974;2023-04-29T05:19:48;100454.75;;;6.03;100.00
51439;BME280;38816;51.142;-0.974;2023-04-29T05:22:13;100441.97;;;6.03;100.00
51439;BME280;38816;51.142;-0.974;2023-04-29T05:24:38;100444.69;;;6.07;100.00
51439;BME280;38816;51.142;-0.974;2023-04-29T05:27:04;100445.69;;;6.11;100.00
51439;BME280;38816;51.142;-0.974;2023-04-29T05:29:29;100440.66;;;6.13;100.00
51439;BME280;38816;51.142;-0.974;2023-04-29T05:31:55;100447.88;;;6.24;100.00
51439;BME280;38816;51.142;-0.974;2023-04-29T05:34:20;100451.44;;;6.28;100.00
51439;BME280;38816;51.142;-0.974;2023-04-29T05:36:45;100448.00;;;6.27;100.00
51439;BME280;38816;51.142;-0.974;2023-04-29T05:39:11;100446.34;;;6.28;100.00
51439;BME280;38816;51.142;-0.974;2023-04-29T05:41:36;100436.97;;;6.28;100.00
51439;BME280;38816;51.142;-0.974;2023-04-29T05:44:02;100450.91;;;6.37;100.00
51439;BME280;38816;51.142;-0.974;2023-04-29T05:46:27;100457.75;;;6.38;100.00
51439;BME280;38816;51.142;-0.974;2023-04-29T05:48:52;100463.97;;;6.44;100.00
51439;BME280;38816;51.142;-0.974;2023-04-29T05:51:18;100463.19;;;6.47;100.00
51439;BME280;38816;51.142;-0.974;2023-04-29T05:53:44;100459.19;;;6.53;100.00
51439;BME280;38816;51.142;-0.974;2023-04-29T05:56:09;100444.59;;;6.51;100.00
51439;BME280;38816;51.142;-0.974;2023-04-29T05:58:35;100457.13;;;6.67;100.00
51439;BME280;38816;51.142;-0.974;2023-04-29T06:01:01;100457.44;;;6.76;100.00
51439;BME280;38816;51.142;-0.974;2023-04-29T06:03:27;100457.81;;;6.87;100.00
51439;BME280;38816;51.142;-0.974;2023-04-29T06:05:52;100454.81;;;6.99;100.00
51439;BME280;38816;51.142;-0.974;2023-04-29T06:08:19;100467.28;;;7.15;100.00
51439;BME280;38816;51.142;-0.974;2023-04-29T06:10:44;100469.44;;;7.28;100.00
51439;BME280;38816;51.142;-0.974;2023-04-29T06:13:10;100477.47;;;7.39;100.00
51439;BME280;38816;51.142;-0.974;2023-04-29T06:15:36;100471.78;;;7.48;100.00
51439;BME280;38816;51.142;-0.974;2023-04-29T06:18:01;100469.41;;;7.54;100.00
51439;BME280;38816;51.142;-0.974;2023-04-29T06:20:27;100480.19;;;7.71;100.00
51439;BME280;38816;51.142;-0.974;2023-04-29T06:22:52;100476.25;;;7.80;100.00
51439;BME280;38816;51.142;-0.974;2023-04-29T06:25:18;100474.97;;;7.95;100.00
51439;BME280;38816;51.142;-0.974;2023-04-29T06:27:43;100477.19;;;8.11;100.00
51439;BME280;38816;51.142;-0.974;2023-04-29T06:30:09;100466.28;;;8.18;100.00
51439;BME280;38816;51.142;-0.974;2023-04-29T06:32:36;100475.97;;;8.28;100.00
51439;BME280;38816;51.142;-0.974;2023-04-29T06:35:01;100484.88;;;8.40;100.00
51439;BME280;38816;51.142;-0.974;2023-04-29T06:37:27;100478.84;;;8.38;100.00
51439;BME280;38816;51.142;-0.974;2023-04-29T06:39:52;100500.63;;;8.52;100.00
51439;BME280;38816;51.142;-0.974;2023-04-29T06:42:18;100487.38;;;8.68;100.00
51439;BME280;38816;51.142;-0.974;2023-04-29T06:44:43;100470.56;;;8.78;100.00
51439;BME280;38816;51.142;-0.974;2023-04-29T06:47:09;100494.34;;;9.04;100.00
51439;BME280;38816;51.142;-0.974;2023-04-29T06:49:34;100491.38;;;9.22;100.00
51439;BME280;38816;51.142;-0.974;2023-04-29T06:52:00;100489.25;;;9.38;100.00
51439;BME280;38816;51.142;-0.974;2023-04-29T06:54:26;100487.91;;;9.53;100.00
51439;BME280;38816;51.142;-0.974;2023-04-29T06:56:52;100490.06;;;9.72;100.00
51439;BME280;38816;51.142;-0.974;2023-04-29T06:59:18;100497.41;;;9.92;100.00
51439;BME280;38816;51.142;-0.974;2023-04-29T07:01:43;100487.38;;;10.04;100.00
51439;BME280;38816;51.142;-0.974;2023-04-29T07:04:09;100501.47;;;10.21;100.00
51439;BME280;38816;51.142;-0.974;2023-04-29T07:06:34;100505.19;;;10.32;100.00
51439;BME280;38816;51.142;-0.974;2023-04-29T07:09:01;100493.31;;;10.39;100.00
51439;BME280;38816;51.142;-0.974;2023-04-29T07:11:26;100505.56;;;10.51;100.00
51439;BME280;38816;51.142;-0.974;2023-04-29T07:13:52;100513.47;;;10.60;100.00
51439;BME280;38816;51.142;-0.974;2023-04-29T07:16:17;100492.22;;;10.69;100.00
51439;BME280;38816;51.142;-0.974;2023-04-29T07:18:46;100500.31;;;10.87;100.00
51439;BME280;38816;51.142;-0.974;2023-04-29T07:21:12;100497.09;;;10.99;100.00
51439;BME280;38816;51.142;-0.974;2023-04-29T07:23:37;100497.47;;;11.20;100.00
51439;BME280;38816;51.142;-0.974;2023-04-29T07:26:12;100508.13;;;11.40;100.00
51439;BME280;38816;51.142;-0.974;2023-04-29T07:28:38;100510.09;;;11.55;100.00
51439;BME280;38816;51.142;-0.974;2023-04-29T07:31:05;100514.59;;;11.68;100.00
51439;BME280;38816;51.142;-0.974;2023-04-29T07:33:31;100514.69;;;11.73;100.00
51439;BME280;38816;51.142;-0.974;2023-04-29T07:35:57;100511.19;;;11.69;100.00
51439;BME280;38816;51.142;-0.974;2023-04-29T07:38:22;100526.84;;;11.80;100.00
51439;BME280;38816;51.142;-0.974;2023-04-29T07:40:48;100533.50;;;11.70;100.00
51439;BME280;38816;51.142;-0.974;2023-04-29T07:43:13;100533.19;;;11.49;100.00
51439;BME280;38816;51.142;-0.974;2023-04-29T07:45:38;100529.44;;;11.31;100.00
51439;BME280;38816;51.142;-0.974;2023-04-29T07:48:04;100542.84;;;11.15;100.00
51439;BME280;38816;51.142;-0.974;2023-04-29T07:50:33;100534.78;;;10.98;100.00
51439;BME280;38816;51.142;-0.974;2023-04-29T07:52:58;100550.22;;;10.98;100.00
51439;BME280;38816;51.142;-0.974;2023-04-29T07:55:26;100547.56;;;10.94;100.00
51439;BME280;38816;51.142;-0.974;2023-04-29T07:57:52;100540.69;;;10.91;100.00
51439;BME280;38816;51.142;-0.974;2023-04-29T08:00:17;100536.28;;;10.85;100.00
51439;BME280;38816;51.142;-0.974;2023-04-29T08:02:43;100544.22;;;10.98;100.00
51439;BME280;38816;51.142;-0.974;2023-04-29T08:05:09;100529.75;;;11.03;100.00
51439;BME280;38816;51.142;-0.974;2023-04-29T08:07:35;100533.25;;;11.06;100.00
51439;BME280;38816;51.142;-0.974;2023-04-29T08:10:00;100535.16;;;11.16;100.00
51439;BME280;38816;51.142;-0.974;2023-04-29T08:12:25;100541.28;;;11.23;100.00
51439;BME280;38816;51.142;-0.974;2023-04-29T08:14:50;100543.00;;;11.24;100.00
51439;BME280;38816;51.142;-0.974;2023-04-29T08:17:16;100554.25;;;11.29;100.00
51439;BME280;38816;51.142;-0.974;2023-04-29T08:19:41;100541.53;;;11.35;100.00
51439;BME280;38816;51.142;-0.974;2023-04-29T08:22:07;100555.44;;;11.47;100.00
51439;BME280;38816;51.142;-0.974;2023-04-29T08:24:32;100540.81;;;11.44;100.00
51439;BME280;38816;51.142;-0.974;2023-04-29T08:26:59;100557.28;;;11.54;100.00
51439;BME280;38816;51.142;-0.974;2023-04-29T08:29:25;100546.09;;;11.52;100.00
51439;BME280;38816;51.142;-0.974;2023-04-29T08:31:51;100558.13;;;11.53;100.00
51439;BME280;38816;51.142;-0.974;2023-04-29T08:34:16;100561.69;;;11.61;100.00
51439;BME280;38816;51.142;-0.974;2023-04-29T08:36:42;100560.88;;;11.62;100.00
51439;BME280;38816;51.142;-0.974;2023-04-29T08:39:07;100573.06;;;11.72;100.00
51439;BME280;38816;51.142;-0.974;2023-04-29T08:41:33;100571.41;;;11.77;100.00
51439;BME280;38816;51.142;-0.974;2023-04-29T08:43:58;100560.31;;;11.81;100.00
51439;BME280;38816;51.142;-0.974;2023-04-29T08:46:25;100560.56;;;11.94;100.00
51439;BME280;38816;51.142;-0.974;2023-04-29T08:48:50;100553.84;;;12.05;100.00
51439;BME280;38816;51.142;-0.974;2023-04-29T08:51:16;100572.97;;;12.19;100.00
51439;BME280;38816;51.142;-0.974;2023-04-29T08:53:42;100564.44;;;12.25;100.00
51439;BME280;38816;51.142;-0.974;2023-04-29T08:56:12;100569.72;;;12.32;100.00
51439;BME280;38816;51.142;-0.974;2023-04-29T08:58:40;100577.66;;;12.45;100.00
51439;BME280;38816;51.142;-0.974;2023-04-29T09:01:08;100564.84;;;12.51;100.00
51439;BME280;38816;51.142;-0.974;2023-04-29T09:03:42;100576.25;;;12.68;100.00
51439;BME280;38816;51.142;-0.974;2023-04-29T09:06:09;100581.56;;;12.82;100.00
51439;BME280;38816;51.142;-0.974;2023-04-29T09:08:35;100578.19;;;12.84;100.00
51439;BME280;38816;51.142;-0.974;2023-04-29T09:11:02;100579.03;;;12.83;100.00
51439;BME280;38816;51.142;-0.974;2023-04-29T09:13:30;100579.22;;;12.99;100.00
51439;BME280;38816;51.142;-0.974;2023-04-29T09:15:56;100577.66;;;13.13;100.00
51439;BME280;38816;51.142;-0.974;2023-04-29T09:18:57;100584.59;;;13.17;100.00
51439;BME280;38816;51.142;-0.974;2023-04-29T09:21:27;100582.88;;;13.16;100.00
51439;BME280;38816;51.142;-0.974;2023-04-29T09:23:55;100581.97;;;13.14;100.00
51439;BME280;38816;51.142;-0.974;2023-04-29T09:26:21;100575.16;;;13.21;100.00
51439;BME280;38816;51.142;-0.974;2023-04-29T09:29:09;100587.47;;;13.41;100.00
51439;BME280;38816;51.142;-0.974;2023-04-29T09:31:39;100574.63;;;13.48;100.00
51439;BME280;38816;51.142;-0.974;2023-04-29T09:34:05;100586.00;;;13.65;100.00
51439;BME280;38816;51.142;-0.974;2023-04-29T09:36:45;100572.28;;;13.77;100.00
51439;BME280;38816;51.142;-0.974;2023-04-29T09:39:17;100582.78;;;13.95;100.00
51439;BME280;38816;51.142;-0.974;2023-04-29T09:44:29;100589.00;;;14.17;100.00
51439;BME280;38816;51.142;-0.974;2023-04-29T09:46:59;100572.66;;;14.23;100.00
51439;BME280;38816;51.142;-0.974;2023-04-29T09:49:34;100591.78;;;14.46;100.00
51439;BME280;38816;51.142;-0.974;2023-04-29T09:52:04;100578.78;;;14.34;93.52
51439;BME280;38816;51.142;-0.974;2023-04-29T09:54:31;100593.44;;;14.38;97.31
51439;BME280;38816;51.142;-0.974;2023-04-29T09:56:58;100582.16;;;14.24;95.35
51439;BME280;38816;51.142;-0.974;2023-04-29T09:59:25;100583.94;;;14.32;96.46
51439;BME280;38816;51.142;-0.974;2023-04-29T10:01:56;100585.81;;;14.52;99.00
51439;BME280;38816;51.142;-0.974;2023-04-29T10:04:23;100584.16;;;14.66;98.87
51439;BME280;38816;51.142;-0.974;2023-04-29T10:06:51;100588.53;;;14.78;100.00
51439;BME280;38816;51.142;-0.974;2023-04-29T10:09:18;100592.09;;;15.00;99.90
51439;BME280;38816;51.142;-0.974;2023-04-29T10:11:45;100592.13;;;15.15;100.00
51439;BME280;38816;51.142;-0.974;2023-04-29T10:14:14;100601.72;;;15.36;99.30
51439;BME280;38816;51.142;-0.974;2023-04-29T10:16:57;100601.72;;;15.43;85.38
51439;BME280;38816;51.142;-0.974;2023-04-29T10:19:34;100603.38;;;15.31;86.50
51439;BME280;38816;51.142;-0.974;2023-04-29T10:22:08;100595.63;;;15.29;87.91
51439;BME280;38816;51.142;-0.974;2023-04-29T10:24:38;100605.19;;;15.47;88.68
51439;BME280;38816;51.142;-0.974;2023-04-29T10:27:06;100602.59;;;15.58;87.84
51439;BME280;38816;51.142;-0.974;2023-04-29T10:29:33;100597.47;;;15.73;88.64
51439;BME280;38816;51.142;-0.974;2023-04-29T10:32:02;100596.63;;;15.79;88.40
51439;BME280;38816;51.142;-0.974;2023-04-29T10:34:28;100589.69;;;15.93;87.90
51439;BME280;38816;51.142;-0.974;2023-04-29T10:36:54;100592.28;;;16.07;88.04
51439;BME280;38816;51.142;-0.974;2023-04-29T10:39:28;100587.13;;;16.22;87.84
51439;BME280;38816;51.142;-0.974;2023-04-29T10:41:56;100599.19;;;16.35;84.45
51439;BME280;38816;51.142;-0.974;2023-04-29T10:44:21;100606.97;;;16.38;79.07
51439;BME280;38816;51.142;-0.974;2023-04-29T10:46:48;100594.03;;;16.26;74.05
51439;BME280;38816;51.142;-0.974;2023-04-29T10:49:13;100594.88;;;16.33;77.90
51439;BME280;38816;51.142;-0.974;2023-04-29T10:54:12;100593.13;;;16.41;76.34
51439;BME280;38816;51.142;-0.974;2023-04-29T10:56:40;100600.88;;;16.52;75.65
51439;BME280;38816;51.142;-0.974;2023-04-29T10:59:09;100606.06;;;16.61;77.05
51439;BME280;38816;51.142;-0.974;2023-04-29T11:01:44;100598.22;;;16.70;75.25
51439;BME280;38816;51.142;-0.974;2023-04-29T11:04:10;100584.44;;;16.73;77.98
51439;BME280;38816;51.142;-0.974;2023-04-29T11:06:40;100593.00;;;16.88;79.22
51439;BME280;38816;51.142;-0.974;2023-04-29T11:09:14;100591.22;;;17.06;80.89
51439;BME280;38816;51.142;-0.974;2023-04-29T11:14:09;100585.78;;;17.50;82.03
51439;BME280;38816;51.142;-0.974;2023-04-29T11:16:46;100591.72;;;17.69;79.76
51439;BME280;38816;51.142;-0.974;2023-04-29T11:19:15;100592.56;;;17.74;76.79
51439;BME280;38816;51.142;-0.974;2023-04-29T11:21:41;100596.91;;;17.72;70.50
51439;BME280;38816;51.142;-0.974;2023-04-29T11:24:06;100589.41;;;17.26;71.85
51439;BME280;38816;51.142;-0.974;2023-04-29T11:26:35;100581.75;;;16.95;77.65
51439;BME280;38816;51.142;-0.974;2023-04-29T11:29:01;100593.88;;;16.93;81.38
51439;BME280;38816;51.142;-0.974;2023-04-29T11:31:30;100595.56;;;17.04;83.72
51439;BME280;38816;51.142;-0.974;2023-04-29T11:33:55;100585.94;;;17.23;80.79
51439;BME280;38816;51.142;-0.974;2023-04-29T11:36:21;100594.50;;;17.44;79.38
51439;BME280;38816;51.142;-0.974;2023-04-29T11:38:49;100586.56;;;17.63;73.55
51439;BME280;38816;51.142;-0.974;2023-04-29T11:41:15;100577.81;;;17.81;72.52
51439;BME280;38816;51.142;-0.974;2023-04-29T11:43:41;100585.41;;;18.07;73.73
51439;BME280;38816;51.142;-0.974;2023-04-29T11:46:14;100576.50;;;18.29;74.56
51439;BME280;38816;51.142;-0.974;2023-04-29T11:48:47;100568.63;;;18.35;68.08
51439;BME280;38816;51.142;-0.974;2023-04-29T11:51:13;100562.38;;;18.50;71.42
51439;BME280;38816;51.142;-0.974;2023-04-29T11:53:39;100568.22;;;18.75;68.13
51439;BME280;38816;51.142;-0.974;2023-04-29T11:56:05;100563.91;;;18.74;65.45
51439;BME280;38816;51.142;-0.974;2023-04-29T11:58:31;100556.91;;;18.78;66.07
51439;BME280;38816;51.142;-0.974;2023-04-29T12:00:57;100564.56;;;18.91;64.66
51439;BME280;38816;51.142;-0.974;2023-04-29T12:03:23;100564.25;;;19.13;70.04
51439;BME280;38816;51.142;-0.974;2023-04-29T12:05:53;100560.34;;;19.44;70.39
51439;BME280;38816;51.142;-0.974;2023-04-29T12:08:31;100553.72;;;19.81;70.29
51439;BME280;38816;51.142;-0.974;2023-04-29T12:10:58;100567.00;;;20.18;67.25
51439;BME280;38816;51.142;-0.974;2023-04-29T12:13:28;100558.28;;;19.68;59.15
51439;BME280;38816;51.142;-0.974;2023-04-29T12:15:54;100560.88;;;19.06;59.80
51439;BME280;38816;51.142;-0.974;2023-04-29T12:18:20;100559.63;;;18.65;61.83
51439;BME280;38816;51.142;-0.974;2023-04-29T12:20:48;100559.91;;;18.39;64.93
51439;BME280;38816;51.142;-0.974;2023-04-29T12:23:20;100567.44;;;18.64;69.80
51439;BME280;38816;51.142;-0.974;2023-04-29T12:25:56;100563.78;;;18.83;70.67
51439;BME280;38816;51.142;-0.974;2023-04-29T12:28:23;100559.38;;;18.88;70.33
51439;BME280;38816;51.142;-0.974;2023-04-29T12:30:52;100567.13;;;18.93;67.38
51439;BME280;38816;51.142;-0.974;2023-04-29T12:33:23;100562.91;;;18.84;63.63
51439;BME280;38816;51.142;-0.974;2023-04-29T12:35:50;100549.41;;;18.48;59.29
51439;BME280;38816;51.142;-0.974;2023-04-29T12:38:20;100551.22;;;18.40;58.96
51439;BME280;38816;51.142;-0.974;2023-04-29T12:40:46;100555.44;;;18.52;63.39
51439;BME280;38816;51.142;-0.974;2023-04-29T12:43:12;100549.31;;;18.55;67.63
51439;BME280;38816;51.142;-0.974;2023-04-29T12:45:37;100564.06;;;18.57;71.05
51439;BME280;38816;51.142;-0.974;2023-04-29T12:48:03;100548.50;;;18.53;72.53
51439;BME280;38816;51.142;-0.974;2023-04-29T12:50:37;100546.84;;;18.44;73.43
51439;BME280;38816;51.142;-0.974;2023-04-29T12:53:04;100556.53;;;18.33;75.15
51439;BME280;38816;51.142;-0.974;2023-04-29T12:55:31;100544.84;;;18.67;75.77
51439;BME280;38816;51.142;-0.974;2023-04-29T12:57:58;100559.50;;;19.42;73.09